New York, NY (10261)

12:32 PM EDT on September 04, 2015 (GMT -0400)
Sutton East | | Change Station
CLOSE
Current Station
Personal Weather Station
Location: New York, NY
Elevation: 79 ft
Nearby Weather Stations

Elev 79 ft 40.76 °N, 73.97 °W | Updated 14 minutes ago

Haze
Haze
81.5 °F
Feels Like 85 °F
N
2.7
Wind Variable Wind from ENE

Today
High -- | Low -- °F
--% Chance of Precip.
Yesterday
High -- | Low -- °F
Precip. -- in
6:25 AM 7:23 PM
Waning Gibbous, 58% visible
Pressure 30.09 in
Visibility 6.0 miles
Clouds Overcast 2600 ft
Heat Index 85 °F
Dew Point 70 °F
Humidity 67%
Rainfall 0.00 in
Snow Depth Not available.
UV 3 out of 12
Pollen 9.00 out of 12
Air Quality Not available.
Flu Activity Not available.
METAR KNYC 041551Z AUTO 08010G15KT 6SM HZ OVC026 27/19 A3012 RMK AO2 SLP188 T02670189 $
Pressure 30.09 in
Visibility 6.0 miles
Clouds Overcast 2600 ft
Heat Index 85 °F
Dew Point 70 °F
Humidity 67%
Rainfall 0.00 in
Snow Depth Not available.
UV 3 out of 12
Pollen 9.00 out of 12
Air Quality Not available.
Flu Activity Not available.
METAR KNYC 041551Z AUTO 08010G15KT 6SM HZ OVC026 27/19 A3012 RMK AO2 SLP188 T02670189 $

10-Day Weather Forecast

×

Almanac

Astronomy

Sep. 04, 2015 Rise Set
Actual Time
Civil Twilight
Nautical Twilight
Astronomical Twilight
Moon
Length of Visible Light
Length of Day
Tomorrow will be .
, % of the Moon is Illuminated

Today's Extremes

State Highs State Lows

Community

WunderPhotos

Upload Photos

1,852,220 photos uploaded!

WunderBlogs® & News

Nearby

Air Quality

  Air Quality AQ Index Pollutant
Not available.

Snow Depth

Station Depth Elevation

Earthquake Activity

City Distance Mag. Time & Date
Minimum magnitude displayed is 2.5.

Coastal Water Temperatures

Place Temperature

Stations

Nearby Weather Stations

Station Location Temp. Windchill Dew Point Humidity Wind Precip. Elev Updated Type